Salem, Michigan
Current Conditions -  °F | °C
As of 3:53 AM on Saturday 25 Oct 2014 (Local Time) from KYIP Reporting Station
Haze Haze  
Wind Chill: 10°   Ceiling: Unl
Heat Index: 10°   Visibility: 3mi
Dew Point:   Wind: 8mph
Humidity: 80%   Direction: 210°SSW
Pressure: 29.91"   Gusts: NA
Location:  42.41°N, 83.58°W
Report Text: KYIP 250753Z 21007KT 3SM HZ CLR 10/07 A2991 RMK AO2 SLP125 T01000067
Loading
Personal Weather Stations






























Interactive Weather Map
Tropical Storm Tracking
New forecast layout! Learn more

10-Day Weather Forecast

Advertisements
Track Severe Weather on mobile